Strona główna
METAR-TAF:

METAR-TAF

Lotnisko :

Columbus, Indiana, Stany Zjednoczone

Szerokość geograficzna: 39-16N, Długość geograficzna: 085-54W, wysokość: 200 m

Aktualna obserwacja pogody

Raport powstał 5 godziny i 48 minut temu, godzina 01:50 UTC
Cisza
Temperatura 20°C
Wilgotność 88%
Ciśnienie 1014 hPa
Widzialność: 16.1 km
Rozproszone chmury na wysokości 9500 ft

METAR: KBAK 280150Z 00000KT 10SM SCT095 20/18 A2995 RMK LAST

czas: 03:38 (07:38 UTC)


TAF: brakujący

Obserwacja i prognoza pogody dla ponad 4000 lotnisk (raport METAR i TAF).

Dostępne stacje oznaczono żółtymi i czerwonymi punktami na mapie.

Najedź kursorem aby zobaczyć nazwę stacji.

Kliknij aby zobaczyć obserwacje i prognozy pogody.

Aby zmienić mapę: kliknij na zielony przycisk z czarnym krzyżykiem, aby powiększyć; na zielony przycisk z myślnikiem, aby pomniejszyć; na zielone strzałki, aby przejść do map sąsiednich.


METAR-TAF: